BAW226 KATL-EGLL
Flight info
| Callsign | BAW226 |
|---|---|
| Flight time | N/A |
| Altitude | 35000 |
| Route | PLMMR3 BURGG Q22 BEARI DCT FAK DCT RBV Q430 RIFLE DCT YAHOO DCT WHALE N59E NANSO/M084F350 N59E RAFIN DCT 45N050W 47N040W 49N030W 51N020W DCT DINIM DCT ELSOX DCT LESLU/N0487F350 DCT FONZU DCT ELRIP DCT OTMET |
| Aircraft | B77W/H-SDE1E2E3FGHIJ2J3J4J5M1RWXY/LB1D1 |
Departure
| Time | 2026-05-05 05:11 |
|---|---|
| Airport | Hartsfield Jackson Atlanta International Airport (KATL) |
Arrival
| Time | N/A |
|---|---|
| Airport | London Heathrow Airport (EGLL) |
| Time | Latitude | Longitude | Altitude | Speed | Heading |
|---|---|---|---|---|---|
| 2026-05-05 04:36 | 33.63803 | -84.41911 | 1031 ft | 0 kts | 270° |
| 2026-05-05 05:00 | 33.63803 | -84.41898 | 1031 ft | 3 kts | 270° |
| 2026-05-05 05:00 | 33.63805 | -84.41869 | 1031 ft | 3 kts | 255° |
| 2026-05-05 05:01 | 33.63814 | -84.41844 | 1031 ft | 2 kts | 230° |
| 2026-05-05 05:01 | 33.63832 | -84.41827 | 1031 ft | 3 kts | 213° |
| 2026-05-05 05:01 | 33.63853 | -84.41814 | 1031 ft | 3 kts | 198° |
| 2026-05-05 05:01 | 33.63874 | -84.41801 | 1031 ft | 3 kts | 216° |
| 2026-05-05 05:02 | 33.63888 | -84.41791 | 1031 ft | 0 kts | 213° |
| 2026-05-05 05:05 | 33.63887 | -84.41791 | 1031 ft | 1 kts | 213° |
| 2026-05-05 05:05 | 33.63871 | -84.41804 | 1031 ft | 4 kts | 213° |
| 2026-05-05 05:06 | 33.63837 | -84.41823 | 1031 ft | 6 kts | 191° |
| 2026-05-05 05:06 | 33.63781 | -84.41827 | 1031 ft | 9 kts | 182° |
| 2026-05-05 05:06 | 33.63705 | -84.41828 | 1029 ft | 13 kts | 179° |
| 2026-05-05 05:06 | 33.63654 | -84.41761 | 1028 ft | 11 kts | 92° |
| 2026-05-05 05:07 | 33.63653 | -84.41667 | 1029 ft | 12 kts | 90° |
| 2026-05-05 05:07 | 33.63653 | -84.41543 | 1028 ft | 18 kts | 89° |
| 2026-05-05 05:07 | 33.63654 | -84.41367 | 1023 ft | 24 kts | 90° |
| 2026-05-05 05:07 | 33.63655 | -84.41167 | 1018 ft | 23 kts | 90° |
| 2026-05-05 05:08 | 33.63654 | -84.41004 | 1015 ft | 14 kts | 90° |
| 2026-05-05 05:08 | 33.63654 | -84.40890 | 1013 ft | 12 kts | 90° |
| 2026-05-05 05:08 | 33.63650 | -84.40791 | 1012 ft | 11 kts | 108° |
| 2026-05-05 05:08 | 33.63594 | -84.40749 | 1012 ft | 10 kts | 181° |
| 2026-05-05 05:09 | 33.63529 | -84.40748 | 1012 ft | 8 kts | 179° |
| 2026-05-05 05:09 | 33.63478 | -84.40759 | 1012 ft | 5 kts | 224° |
| 2026-05-05 05:09 | 33.63472 | -84.40778 | 1012 ft | 0 kts | 268° |
| 2026-05-05 05:10 | 33.63470 | -84.40939 | 1013 ft | 51 kts | 270° |
| 2026-05-05 05:10 | 33.63469 | -84.41560 | 1017 ft | 113 kts | 271° |
| 2026-05-05 05:10 | 33.63470 | -84.42669 | 1019 ft | 170 kts | 270° |
| 2026-05-05 05:10 | 33.63472 | -84.44244 | 1213 ft | 205 kts | 269° |
| 2026-05-05 05:11 | 33.63482 | -84.45915 | 2091 ft | 205 kts | 269° |
| 2026-05-05 05:11 | 33.63405 | -84.47594 | 2775 ft | 206 kts | 253° |
| 2026-05-05 05:11 | 33.62791 | -84.49149 | 3318 ft | 210 kts | 234° |
| 2026-05-05 05:11 | 33.61969 | -84.50674 | 3749 ft | 227 kts | 239° |
| 2026-05-05 05:12 | 33.61225 | -84.52437 | 4250 ft | 244 kts | 243° |
| 2026-05-05 05:12 | 33.60490 | -84.54334 | 4859 ft | 257 kts | 243° |
| 2026-05-05 05:12 | 33.59697 | -84.56267 | 5676 ft | 260 kts | 239° |
| 2026-05-05 05:12 | 33.58607 | -84.57949 | 6552 ft | 258 kts | 221° |
| 2026-05-05 05:13 | 33.57085 | -84.59061 | 7354 ft | 260 kts | 200° |
| 2026-05-05 05:13 | 33.55260 | -84.59401 | 7961 ft | 271 kts | 176° |
| 2026-05-05 05:13 | 33.53408 | -84.58812 | 8553 ft | 283 kts | 162° |
| 2026-05-05 05:13 | 33.51509 | -84.58124 | 9384 ft | 283 kts | 168° |
| 2026-05-05 05:14 | 33.49624 | -84.57414 | 10109 ft | 289 kts | 156° |
| 2026-05-05 05:14 | 33.47866 | -84.56186 | 10659 ft | 303 kts | 147° |
| 2026-05-05 05:14 | 33.46180 | -84.54497 | 11039 ft | 322 kts | 136° |
| 2026-05-05 05:14 | 33.44704 | -84.52356 | 11467 ft | 341 kts | 126° |
| 2026-05-05 05:15 | 33.43635 | -84.49888 | 11803 ft | 361 kts | 110° |
| 2026-05-05 05:15 | 33.43222 | -84.46908 | 12172 ft | 381 kts | 90° |
| 2026-05-05 05:15 | 33.43622 | -84.43551 | 12619 ft | 398 kts | 78° |
| 2026-05-05 05:15 | 33.44304 | -84.40046 | 13275 ft | 410 kts | 77° |
| 2026-05-05 05:16 | 33.45137 | -84.36480 | 14124 ft | 416 kts | 70° |
| 2026-05-05 05:16 | 33.46478 | -84.33192 | 14985 ft | 420 kts | 58° |
| 2026-05-05 05:16 | 33.48326 | -84.30231 | 15785 ft | 424 kts | 47° |
| 2026-05-05 05:16 | 33.50521 | -84.27515 | 16607 ft | 428 kts | 44° |
| 2026-05-05 05:17 | 33.52797 | -84.24771 | 17367 ft | 434 kts | 44° |
| 2026-05-05 05:17 | 33.55061 | -84.22033 | 18131 ft | 439 kts | 44° |
| 2026-05-05 05:17 | 33.57302 | -84.19315 | 18943 ft | 441 kts | 44° |
| 2026-05-05 05:17 | 33.59597 | -84.16524 | 19694 ft | 446 kts | 44° |
| 2026-05-05 05:18 | 33.61924 | -84.13689 | 20391 ft | 452 kts | 43° |
| 2026-05-05 05:18 | 33.64245 | -84.10857 | 21093 ft | 457 kts | 43° |
| 2026-05-05 05:18 | 33.66504 | -84.08096 | 21751 ft | 461 kts | 43° |
| 2026-05-05 05:18 | 33.68766 | -84.05329 | 22355 ft | 466 kts | 43° |
| 2026-05-05 05:19 | 33.71114 | -84.02454 | 22971 ft | 471 kts | 43° |
| 2026-05-05 05:19 | 33.73543 | -83.99477 | 23666 ft | 475 kts | 42° |
| 2026-05-05 05:19 | 33.75989 | -83.96475 | 24332 ft | 479 kts | 42° |
| 2026-05-05 05:19 | 33.78371 | -83.93550 | 24976 ft | 482 kts | 42° |
| 2026-05-05 05:20 | 33.80938 | -83.90395 | 25600 ft | 486 kts | 42° |
| 2026-05-05 05:20 | 33.83484 | -83.87260 | 26232 ft | 490 kts | 42° |
| 2026-05-05 05:20 | 33.85986 | -83.84180 | 26847 ft | 493 kts | 42° |
| 2026-05-05 05:20 | 33.88497 | -83.81082 | 27459 ft | 496 kts | 42° |
| 2026-05-05 05:21 | 33.91045 | -83.77938 | 27987 ft | 499 kts | 41° |
| 2026-05-05 05:21 | 33.93592 | -83.74792 | 28618 ft | 503 kts | 42° |
| 2026-05-05 05:21 | 33.96036 | -83.71458 | 29152 ft | 509 kts | 49° |
| 2026-05-05 05:21 | 33.98318 | -83.67802 | 29755 ft | 511 kts | 50° |
| 2026-05-05 05:22 | 34.00525 | -83.64203 | 30530 ft | 508 kts | 50° |
| 2026-05-05 05:22 | 34.02696 | -83.60659 | 31115 ft | 506 kts | 48° |
| 2026-05-05 05:22 | 34.04895 | -83.57068 | 31660 ft | 507 kts | 49° |
| 2026-05-05 05:22 | 34.07026 | -83.53587 | 32252 ft | 506 kts | 48° |
| 2026-05-05 05:23 | 34.09158 | -83.50101 | 32708 ft | 505 kts | 47° |
| 2026-05-05 05:23 | 34.11285 | -83.46622 | 33122 ft | 507 kts | 48° |
| 2026-05-05 05:23 | 34.13414 | -83.43137 | 33051 ft | 507 kts | 48° |
| 2026-05-05 05:24 | 34.17460 | -83.36505 | 33183 ft | 512 kts | 48° |
| 2026-05-05 05:24 | 34.19553 | -83.33069 | 33644 ft | 509 kts | 47° |
| 2026-05-05 05:24 | 34.21658 | -83.29607 | 34238 ft | 506 kts | 47° |
| 2026-05-05 05:24 | 34.23816 | -83.26056 | 34824 ft | 502 kts | 48° |
| 2026-05-05 05:25 | 34.25983 | -83.22491 | 35083 ft | 505 kts | 47° |
| 2026-05-05 05:25 | 34.30233 | -83.15484 | 35045 ft | 500 kts | 48° |
| 2026-05-05 05:26 | 34.34594 | -83.08342 | 35017 ft | 503 kts | 46° |
| 2026-05-05 05:26 | 34.38929 | -83.01258 | 35120 ft | 501 kts | 47° |
| 2026-05-05 05:26 | 34.41021 | -82.97835 | 34996 ft | 501 kts | 47° |
| 2026-05-05 05:27 | 34.43155 | -82.94335 | 35042 ft | 497 kts | 47° |
| 2026-05-05 05:27 | 34.49638 | -82.83691 | 35043 ft | 499 kts | 47° |
| 2026-05-05 05:28 | 34.53986 | -82.76532 | 35068 ft | 498 kts | 48° |
| 2026-05-05 05:28 | 34.58315 | -82.69392 | 35135 ft | 504 kts | 49° |
| 2026-05-05 05:29 | 34.60496 | -82.65784 | 34997 ft | 499 kts | 48° |
| 2026-05-05 05:29 | 34.62655 | -82.62214 | 35146 ft | 502 kts | 49° |
| 2026-05-05 05:29 | 34.66961 | -82.55077 | 35030 ft | 499 kts | 49° |
| 2026-05-05 05:30 | 34.71175 | -82.47918 | 35055 ft | 502 kts | 49° |
| 2026-05-05 05:30 | 34.75449 | -82.40623 | 35139 ft | 504 kts | 49° |
| 2026-05-05 05:31 | 34.79568 | -82.33580 | 35051 ft | 500 kts | 50° |
| 2026-05-05 05:31 | 34.83628 | -82.26631 | 35087 ft | 504 kts | 50° |
| 2026-05-05 05:32 | 34.87688 | -82.19669 | 35061 ft | 503 kts | 50° |
| 2026-05-05 05:32 | 34.91734 | -82.12718 | 35096 ft | 503 kts | 50° |
| 2026-05-05 05:33 | 34.95791 | -82.05735 | 35071 ft | 502 kts | 50° |
| 2026-05-05 05:33 | 35.00013 | -81.98454 | 35069 ft | 503 kts | 50° |
| 2026-05-05 05:34 | 35.04164 | -81.91298 | 35058 ft | 505 kts | 49° |
| 2026-05-05 05:34 | 35.08295 | -81.84646 | 35036 ft | 502 kts | 48° |
| 2026-05-05 05:35 | 35.12617 | -81.77711 | 35021 ft | 503 kts | 49° |
| 2026-05-05 05:35 | 35.16895 | -81.70815 | 35050 ft | 504 kts | 49° |